sensor_id;sensor_type;location;lat;lon;timestamp;temperature;humidity
24426;DHT22;12611;44.446;26.000;2023-01-26T00:02:25;5.40;81.90
24426;DHT22;12611;44.446;26.000;2023-01-26T00:04:54;5.40;81.90
24426;DHT22;12611;44.446;26.000;2023-01-26T00:07:22;5.30;82.00
24426;DHT22;12611;44.446;26.000;2023-01-26T00:09:50;5.30;82.20
24426;DHT22;12611;44.446;26.000;2023-01-26T00:12:19;5.30;82.20
24426;DHT22;12611;44.446;26.000;2023-01-26T00:14:48;5.30;82.10
24426;DHT22;12611;44.446;26.000;2023-01-26T00:17:18;5.40;82.10
24426;DHT22;12611;44.446;26.000;2023-01-26T00:19:54;5.40;82.10
24426;DHT22;12611;44.446;26.000;2023-01-26T00:22:24;5.30;82.00
24426;DHT22;12611;44.446;26.000;2023-01-26T00:24:52;5.30;82.00
24426;DHT22;12611;44.446;26.000;2023-01-26T00:27:21;5.30;82.00
24426;DHT22;12611;44.446;26.000;2023-01-26T00:29:51;5.30;82.10
24426;DHT22;12611;44.446;26.000;2023-01-26T00:32:19;5.40;82.30
24426;DHT22;12611;44.446;26.000;2023-01-26T00:34:47;5.40;82.00
24426;DHT22;12611;44.446;26.000;2023-01-26T00:37:15;5.40;81.90
24426;DHT22;12611;44.446;26.000;2023-01-26T00:39:44;5.40;81.90
24426;DHT22;12611;44.446;26.000;2023-01-26T00:42:12;5.40;81.70
24426;DHT22;12611;44.446;26.000;2023-01-26T00:44:42;5.50;81.70
24426;DHT22;12611;44.446;26.000;2023-01-26T00:47:12;5.50;81.70
24426;DHT22;12611;44.446;26.000;2023-01-26T00:49:41;5.50;81.70
24426;DHT22;12611;44.446;26.000;2023-01-26T00:52:10;5.50;81.50
24426;DHT22;12611;44.446;26.000;2023-01-26T00:54:39;5.50;81.50
24426;DHT22;12611;44.446;26.000;2023-01-26T00:57:07;5.60;81.50
24426;DHT22;12611;44.446;26.000;2023-01-26T00:59:35;5.50;81.40
24426;DHT22;12611;44.446;26.000;2023-01-26T01:02:04;5.60;81.50
24426;DHT22;12611;44.446;26.000;2023-01-26T01:04:33;5.60;81.50
24426;DHT22;12611;44.446;26.000;2023-01-26T01:07:02;5.60;81.50
24426;DHT22;12611;44.446;26.000;2023-01-26T01:09:30;5.50;81.30
24426;DHT22;12611;44.446;26.000;2023-01-26T01:11:59;5.60;81.40
24426;DHT22;12611;44.446;26.000;2023-01-26T01:14:27;5.50;81.30
24426;DHT22;12611;44.446;26.000;2023-01-26T01:16:55;5.60;81.50
24426;DHT22;12611;44.446;26.000;2023-01-26T01:19:24;5.60;81.50
24426;DHT22;12611;44.446;26.000;2023-01-26T01:21:54;5.60;81.30
24426;DHT22;12611;44.446;26.000;2023-01-26T01:24:23;5.60;81.40
24426;DHT22;12611;44.446;26.000;2023-01-26T01:26:51;5.60;81.30
24426;DHT22;12611;44.446;26.000;2023-01-26T01:29:20;5.60;81.30
24426;DHT22;12611;44.446;26.000;2023-01-26T01:31:48;5.50;81.40
24426;DHT22;12611;44.446;26.000;2023-01-26T01:34:16;5.50;81.40
24426;DHT22;12611;44.446;26.000;2023-01-26T01:36:45;5.50;81.50
24426;DHT22;12611;44.446;26.000;2023-01-26T01:39:14;5.40;81.90
24426;DHT22;12611;44.446;26.000;2023-01-26T01:41:45;5.40;81.90
24426;DHT22;12611;44.446;26.000;2023-01-26T01:44:16;5.40;81.80
24426;DHT22;12611;44.446;26.000;2023-01-26T01:46:50;5.30;82.20
24426;DHT22;12611;44.446;26.000;2023-01-26T01:49:22;5.30;82.10
24426;DHT22;12611;44.446;26.000;2023-01-26T01:51:56;5.30;82.30
24426;DHT22;12611;44.446;26.000;2023-01-26T01:54:32;5.40;82.70
24426;DHT22;12611;44.446;26.000;2023-01-26T01:57:05;5.40;82.60
24426;DHT22;12611;44.446;26.000;2023-01-26T01:59:42;5.40;83.20
24426;DHT22;12611;44.446;26.000;2023-01-26T02:02:13;5.40;82.50
24426;DHT22;12611;44.446;26.000;2023-01-26T02:04:42;5.40;82.70
24426;DHT22;12611;44.446;26.000;2023-01-26T02:07:11;5.40;82.70
24426;DHT22;12611;44.446;26.000;2023-01-26T02:09:41;5.40;82.90
24426;DHT22;12611;44.446;26.000;2023-01-26T02:12:30;5.40;82.80
24426;DHT22;12611;44.446;26.000;2023-01-26T02:15:00;5.50;83.30
24426;DHT22;12611;44.446;26.000;2023-01-26T02:17:29;5.50;83.70
24426;DHT22;12611;44.446;26.000;2023-01-26T02:20:03;5.50;83.60
24426;DHT22;12611;44.446;26.000;2023-01-26T02:22:41;5.50;83.40
24426;DHT22;12611;44.446;26.000;2023-01-26T02:25:20;5.50;83.80
24426;DHT22;12611;44.446;26.000;2023-01-26T02:27:53;5.50;84.00
24426;DHT22;12611;44.446;26.000;2023-01-26T02:30:22;5.50;84.30
24426;DHT22;12611;44.446;26.000;2023-01-26T02:32:51;5.50;84.30
24426;DHT22;12611;44.446;26.000;2023-01-26T02:35:19;5.50;84.60
24426;DHT22;12611;44.446;26.000;2023-01-26T02:37:48;5.50;84.40
24426;DHT22;12611;44.446;26.000;2023-01-26T02:40:24;5.50;84.70
24426;DHT22;12611;44.446;26.000;2023-01-26T02:42:58;5.50;85.00
24426;DHT22;12611;44.446;26.000;2023-01-26T02:45:26;5.40;85.00
24426;DHT22;12611;44.446;26.000;2023-01-26T02:47:56;5.40;85.00
24426;DHT22;12611;44.446;26.000;2023-01-26T02:50:28;5.40;85.20
24426;DHT22;12611;44.446;26.000;2023-01-26T02:52:55;5.30;85.40
24426;DHT22;12611;44.446;26.000;2023-01-26T02:55:24;5.30;85.60
24426;DHT22;12611;44.446;26.000;2023-01-26T02:57:53;5.40;85.40
24426;DHT22;12611;44.446;26.000;2023-01-26T03:00:25;5.30;85.50
24426;DHT22;12611;44.446;26.000;2023-01-26T03:02:55;5.30;85.90
24426;DHT22;12611;44.446;26.000;2023-01-26T03:05:24;5.40;85.80
24426;DHT22;12611;44.446;26.000;2023-01-26T03:07:53;5.30;86.00
24426;DHT22;12611;44.446;26.000;2023-01-26T03:10:22;5.30;86.00
24426;DHT22;12611;44.446;26.000;2023-01-26T03:12:53;5.30;85.80
24426;DHT22;12611;44.446;26.000;2023-01-26T03:15:22;5.40;85.80
24426;DHT22;12611;44.446;26.000;2023-01-26T03:18:11;5.40;86.00
24426;DHT22;12611;44.446;26.000;2023-01-26T03:20:53;5.40;86.10
24426;DHT22;12611;44.446;26.000;2023-01-26T03:23:39;5.40;86.30
24426;DHT22;12611;44.446;26.000;2023-01-26T03:26:25;5.30;86.60
24426;DHT22;12611;44.446;26.000;2023-01-26T03:29:11;5.40;86.70
24426;DHT22;12611;44.446;26.000;2023-01-26T03:31:41;5.40;86.60
24426;DHT22;12611;44.446;26.000;2023-01-26T03:34:09;5.40;86.60
24426;DHT22;12611;44.446;26.000;2023-01-26T03:36:37;5.30;86.70
24426;DHT22;12611;44.446;26.000;2023-01-26T03:39:06;5.40;87.50
24426;DHT22;12611;44.446;26.000;2023-01-26T03:41:34;5.40;86.60
24426;DHT22;12611;44.446;26.000;2023-01-26T03:44:20;5.40;86.70
24426;DHT22;12611;44.446;26.000;2023-01-26T03:47:07;5.40;86.60
24426;DHT22;12611;44.446;26.000;2023-01-26T03:49:52;5.30;87.20
24426;DHT22;12611;44.446;26.000;2023-01-26T03:52:39;5.30;87.50
24426;DHT22;12611;44.446;26.000;2023-01-26T03:55:24;5.30;87.40
24426;DHT22;12611;44.446;26.000;2023-01-26T03:58:10;5.30;87.50
24426;DHT22;12611;44.446;26.000;2023-01-26T04:00:38;5.30;87.60
24426;DHT22;12611;44.446;26.000;2023-01-26T04:03:08;5.20;87.90
24426;DHT22;12611;44.446;26.000;2023-01-26T04:05:57;5.20;87.80
24426;DHT22;12611;44.446;26.000;2023-01-26T04:08:43;5.30;87.60
24426;DHT22;12611;44.446;26.000;2023-01-26T04:11:12;5.30;87.60
24426;DHT22;12611;44.446;26.000;2023-01-26T04:13:42;5.30;88.20
24426;DHT22;12611;44.446;26.000;2023-01-26T04:16:27;5.20;88.20
24426;DHT22;12611;44.446;26.000;2023-01-26T04:19:14;5.30;87.90
24426;DHT22;12611;44.446;26.000;2023-01-26T04:22:00;5.30;88.10
24426;DHT22;12611;44.446;26.000;2023-01-26T04:24:28;5.30;88.00
24426;DHT22;12611;44.446;26.000;2023-01-26T04:26:56;5.30;88.00
24426;DHT22;12611;44.446;26.000;2023-01-26T04:29:25;5.40;88.10
24426;DHT22;12611;44.446;26.000;2023-01-26T04:31:53;5.40;88.00
24426;DHT22;12611;44.446;26.000;2023-01-26T04:34:23;5.40;87.90
24426;DHT22;12611;44.446;26.000;2023-01-26T04:36:51;5.40;88.00
24426;DHT22;12611;44.446;26.000;2023-01-26T04:39:20;5.50;88.00
24426;DHT22;12611;44.446;26.000;2023-01-26T04:41:48;5.40;87.90
24426;DHT22;12611;44.446;26.000;2023-01-26T04:44:16;5.50;87.90
24426;DHT22;12611;44.446;26.000;2023-01-26T04:46:45;5.40;87.90
24426;DHT22;12611;44.446;26.000;2023-01-26T04:49:14;5.40;88.20
24426;DHT22;12611;44.446;26.000;2023-01-26T04:51:44;5.40;88.30
24426;DHT22;12611;44.446;26.000;2023-01-26T04:54:12;5.40;88.50
24426;DHT22;12611;44.446;26.000;2023-01-26T04:56:41;5.30;88.50
24426;DHT22;12611;44.446;26.000;2023-01-26T04:59:11;5.30;88.40
24426;DHT22;12611;44.446;26.000;2023-01-26T05:01:40;5.20;88.40
24426;DHT22;12611;44.446;26.000;2023-01-26T05:04:10;5.30;88.50
24426;DHT22;12611;44.446;26.000;2023-01-26T05:06:39;5.30;88.30
24426;DHT22;12611;44.446;26.000;2023-01-26T05:09:10;5.30;88.40
24426;DHT22;12611;44.446;26.000;2023-01-26T05:11:38;5.30;88.40
24426;DHT22;12611;44.446;26.000;2023-01-26T05:14:07;5.30;88.60
24426;DHT22;12611;44.446;26.000;2023-01-26T05:16:35;5.20;88.90
24426;DHT22;12611;44.446;26.000;2023-01-26T05:19:04;5.20;88.80
24426;DHT22;12611;44.446;26.000;2023-01-26T05:21:32;5.20;88.90
24426;DHT22;12611;44.446;26.000;2023-01-26T05:24:00;5.20;88.80
24426;DHT22;12611;44.446;26.000;2023-01-26T05:26:30;5.20;89.10
24426;DHT22;12611;44.446;26.000;2023-01-26T05:28:58;5.10;89.20
24426;DHT22;12611;44.446;26.000;2023-01-26T05:31:27;5.20;89.20
24426;DHT22;12611;44.446;26.000;2023-01-26T05:33:55;5.10;89.30
24426;DHT22;12611;44.446;26.000;2023-01-26T05:36:24;5.10;89.10
24426;DHT22;12611;44.446;26.000;2023-01-26T05:38:52;5.10;89.30
24426;DHT22;12611;44.446;26.000;2023-01-26T05:41:23;5.10;89.40
24426;DHT22;12611;44.446;26.000;2023-01-26T05:43:53;5.00;89.40
24426;DHT22;12611;44.446;26.000;2023-01-26T05:46:21;5.00;89.60
24426;DHT22;12611;44.446;26.000;2023-01-26T05:48:50;4.90;89.80
24426;DHT22;12611;44.446;26.000;2023-01-26T05:51:18;5.00;90.00
24426;DHT22;12611;44.446;26.000;2023-01-26T05:53:46;4.90;90.00
24426;DHT22;12611;44.446;26.000;2023-01-26T05:56:14;5.00;90.00
24426;DHT22;12611;44.446;26.000;2023-01-26T05:58:43;5.00;89.90
24426;DHT22;12611;44.446;26.000;2023-01-26T06:01:12;5.00;89.80
24426;DHT22;12611;44.446;26.000;2023-01-26T06:03:41;5.00;90.00
24426;DHT22;12611;44.446;26.000;2023-01-26T06:06:09;5.00;89.80
24426;DHT22;12611;44.446;26.000;2023-01-26T06:08:37;5.10;89.70
24426;DHT22;12611;44.446;26.000;2023-01-26T06:11:06;5.00;89.80
24426;DHT22;12611;44.446;26.000;2023-01-26T06:13:34;5.00;90.30
24426;DHT22;12611;44.446;26.000;2023-01-26T06:16:03;5.00;90.00
24426;DHT22;12611;44.446;26.000;2023-01-26T06:18:32;5.10;90.00
24426;DHT22;12611;44.446;26.000;2023-01-26T06:21:01;5.10;89.90
24426;DHT22;12611;44.446;26.000;2023-01-26T06:23:29;5.10;90.00
24426;DHT22;12611;44.446;26.000;2023-01-26T06:25:58;5.10;90.00
24426;DHT22;12611;44.446;26.000;2023-01-26T06:28:27;5.10;90.00
24426;DHT22;12611;44.446;26.000;2023-01-26T06:30:58;5.00;90.20
24426;DHT22;12611;44.446;26.000;2023-01-26T06:33:27;5.00;90.10
24426;DHT22;12611;44.446;26.000;2023-01-26T06:36:00;5.00;90.20
24426;DHT22;12611;44.446;26.000;2023-01-26T06:38:28;5.10;90.10
24426;DHT22;12611;44.446;26.000;2023-01-26T06:40:58;5.00;90.10
24426;DHT22;12611;44.446;26.000;2023-01-26T06:43:29;5.00;90.20
24426;DHT22;12611;44.446;26.000;2023-01-26T06:45:57;5.00;90.20
24426;DHT22;12611;44.446;26.000;2023-01-26T06:48:27;4.90;90.30
24426;DHT22;12611;44.446;26.000;2023-01-26T06:51:04;4.90;90.40
24426;DHT22;12611;44.446;26.000;2023-01-26T06:53:36;4.90;90.40
24426;DHT22;12611;44.446;26.000;2023-01-26T06:56:05;5.00;90.60
24426;DHT22;12611;44.446;26.000;2023-01-26T06:58:33;5.00;90.70
24426;DHT22;12611;44.446;26.000;2023-01-26T07:01:01;5.00;90.80
24426;DHT22;12611;44.446;26.000;2023-01-26T07:03:29;5.00;90.90
24426;DHT22;12611;44.446;26.000;2023-01-26T07:05:59;5.00;91.10
24426;DHT22;12611;44.446;26.000;2023-01-26T07:08:28;5.10;91.10
24426;DHT22;12611;44.446;26.000;2023-01-26T07:10:56;5.20;91.00
24426;DHT22;12611;44.446;26.000;2023-01-26T07:13:25;5.20;91.00
24426;DHT22;12611;44.446;26.000;2023-01-26T07:16:09;5.20;91.00
24426;DHT22;12611;44.446;26.000;2023-01-26T07:18:40;5.30;91.00
24426;DHT22;12611;44.446;26.000;2023-01-26T07:21:12;5.30;90.80
24426;DHT22;12611;44.446;26.000;2023-01-26T07:23:40;5.30;91.00
24426;DHT22;12611;44.446;26.000;2023-01-26T07:26:09;5.30;90.80
24426;DHT22;12611;44.446;26.000;2023-01-26T07:28:38;5.40;90.70
24426;DHT22;12611;44.446;26.000;2023-01-26T07:31:09;5.30;90.70
24426;DHT22;12611;44.446;26.000;2023-01-26T07:33:37;5.40;90.70
24426;DHT22;12611;44.446;26.000;2023-01-26T07:36:06;5.30;91.00
24426;DHT22;12611;44.446;26.000;2023-01-26T07:38:36;5.40;90.60
24426;DHT22;12611;44.446;26.000;2023-01-26T07:41:07;5.30;90.70
24426;DHT22;12611;44.446;26.000;2023-01-26T07:43:37;5.40;90.70
24426;DHT22;12611;44.446;26.000;2023-01-26T07:58:03;5.40;90.40
24426;DHT22;12611;44.446;26.000;2023-01-26T08:00:31;5.50;91.20
24426;DHT22;12611;44.446;26.000;2023-01-26T08:02:59;5.40;91.10
24426;DHT22;12611;44.446;26.000;2023-01-26T08:05:28;5.50;91.20
24426;DHT22;12611;44.446;26.000;2023-01-26T08:07:56;5.40;91.30
24426;DHT22;12611;44.446;26.000;2023-01-26T08:10:25;5.50;91.20
24426;DHT22;12611;44.446;26.000;2023-01-26T08:12:54;5.50;91.30
24426;DHT22;12611;44.446;26.000;2023-01-26T08:15:23;5.50;91.40
24426;DHT22;12611;44.446;26.000;2023-01-26T08:17:52;5.50;91.30
24426;DHT22;12611;44.446;26.000;2023-01-26T08:20:21;5.50;91.30
24426;DHT22;12611;44.446;26.000;2023-01-26T08:22:50;5.50;91.50
24426;DHT22;12611;44.446;26.000;2023-01-26T08:25:18;5.50;91.30
24426;DHT22;12611;44.446;26.000;2023-01-26T08:27:46;5.50;91.40
24426;DHT22;12611;44.446;26.000;2023-01-26T08:30:16;5.40;91.30
24426;DHT22;12611;44.446;26.000;2023-01-26T08:32:45;5.50;91.40
24426;DHT22;12611;44.446;26.000;2023-01-26T08:35:14;5.40;91.40
24426;DHT22;12611;44.446;26.000;2023-01-26T08:37:42;5.40;91.40
24426;DHT22;12611;44.446;26.000;2023-01-26T08:40:11;5.40;91.50
24426;DHT22;12611;44.446;26.000;2023-01-26T08:42:40;5.30;91.30
24426;DHT22;12611;44.446;26.000;2023-01-26T08:45:09;5.40;91.40
24426;DHT22;12611;44.446;26.000;2023-01-26T08:47:38;5.30;91.50
24426;DHT22;12611;44.446;26.000;2023-01-26T08:50:08;5.30;91.70
24426;DHT22;12611;44.446;26.000;2023-01-26T08:52:37;5.30;91.60
24426;DHT22;12611;44.446;26.000;2023-01-26T08:55:06;5.40;91.50
24426;DHT22;12611;44.446;26.000;2023-01-26T08:57:35;5.40;91.60
24426;DHT22;12611;44.446;26.000;2023-01-26T09:00:04;5.40;91.80
24426;DHT22;12611;44.446;26.000;2023-01-26T09:02:33;5.40;91.60
24426;DHT22;12611;44.446;26.000;2023-01-26T09:05:01;5.40;91.60
24426;DHT22;12611;44.446;26.000;2023-01-26T09:07:32;5.40;91.50
24426;DHT22;12611;44.446;26.000;2023-01-26T09:10:01;5.40;91.60
24426;DHT22;12611;44.446;26.000;2023-01-26T09:12:29;5.40;91.70
24426;DHT22;12611;44.446;26.000;2023-01-26T09:14:57;5.40;91.80
24426;DHT22;12611;44.446;26.000;2023-01-26T09:17:26;5.40;91.80
24426;DHT22;12611;44.446;26.000;2023-01-26T09:19:54;5.30;91.90
24426;DHT22;12611;44.446;26.000;2023-01-26T09:22:22;5.40;91.80
24426;DHT22;12611;44.446;26.000;2023-01-26T09:24:52;5.30;91.90
24426;DHT22;12611;44.446;26.000;2023-01-26T09:27:20;5.30;91.90
24426;DHT22;12611;44.446;26.000;2023-01-26T09:29:49;5.30;91.80
24426;DHT22;12611;44.446;26.000;2023-01-26T09:32:18;5.30;91.90
24426;DHT22;12611;44.446;26.000;2023-01-26T09:34:47;5.20;92.00
24426;DHT22;12611;44.446;26.000;2023-01-26T09:37:16;5.20;92.10
24426;DHT22;12611;44.446;26.000;2023-01-26T09:39:47;5.20;92.20
24426;DHT22;12611;44.446;26.000;2023-01-26T09:42:44;5.30;92.20
24426;DHT22;12611;44.446;26.000;2023-01-26T09:45:27;5.30;92.20
24426;DHT22;12611;44.446;26.000;2023-01-26T09:48:11;5.40;92.20
24426;DHT22;12611;44.446;26.000;2023-01-26T09:50:46;5.50;92.20
24426;DHT22;12611;44.446;26.000;2023-01-26T09:53:17;5.50;92.10
24426;DHT22;12611;44.446;26.000;2023-01-26T09:55:47;5.60;92.00
24426;DHT22;12611;44.446;26.000;2023-01-26T09:58:24;5.60;92.00
24426;DHT22;12611;44.446;26.000;2023-01-26T10:00:58;5.60;92.00
24426;DHT22;12611;44.446;26.000;2023-01-26T10:03:32;5.60;91.90
24426;DHT22;12611;44.446;26.000;2023-01-26T10:06:10;5.70;91.90
24426;DHT22;12611;44.446;26.000;2023-01-26T10:08:41;5.70;91.90
24426;DHT22;12611;44.446;26.000;2023-01-26T10:11:15;5.70;91.80
24426;DHT22;12611;44.446;26.000;2023-01-26T10:13:52;5.70;91.80
24426;DHT22;12611;44.446;26.000;2023-01-26T10:16:22;5.70;91.70
24426;DHT22;12611;44.446;26.000;2023-01-26T10:18:55;5.70;91.80
24426;DHT22;12611;44.446;26.000;2023-01-26T10:21:30;5.70;91.80
24426;DHT22;12611;44.446;26.000;2023-01-26T10:24:00;5.70;91.80
24426;DHT22;12611;44.446;26.000;2023-01-26T10:26:30;5.60;91.90
24426;DHT22;12611;44.446;26.000;2023-01-26T10:29:02;5.60;91.90
24426;DHT22;12611;44.446;26.000;2023-01-26T10:31:32;5.70;92.00
24426;DHT22;12611;44.446;26.000;2023-01-26T10:34:09;5.70;91.90
24426;DHT22;12611;44.446;26.000;2023-01-26T10:36:41;5.70;92.10
24426;DHT22;12611;44.446;26.000;2023-01-26T10:39:12;5.70;92.10
24426;DHT22;12611;44.446;26.000;2023-01-26T10:41:55;5.70;92.10
24426;DHT22;12611;44.446;26.000;2023-01-26T10:44:31;5.70;92.00
24426;DHT22;12611;44.446;26.000;2023-01-26T10:47:05;5.80;92.10
24426;DHT22;12611;44.446;26.000;2023-01-26T10:49:34;5.70;92.20
24426;DHT22;12611;44.446;26.000;2023-01-26T10:52:12;5.70;92.30
24426;DHT22;12611;44.446;26.000;2023-01-26T10:54:43;5.70;92.40
24426;DHT22;12611;44.446;26.000;2023-01-26T10:57:23;5.70;92.40
24426;DHT22;12611;44.446;26.000;2023-01-26T10:59:56;5.60;92.50
24426;DHT22;12611;44.446;26.000;2023-01-26T11:02:27;5.60;92.80
24426;DHT22;12611;44.446;26.000;2023-01-26T11:05:20;5.60;93.00
24426;DHT22;12611;44.446;26.000;2023-01-26T11:07:50;5.50;93.00
24426;DHT22;12611;44.446;26.000;2023-01-26T11:10:29;5.60;92.90
24426;DHT22;12611;44.446;26.000;2023-01-26T11:13:13;5.50;93.10
24426;DHT22;12611;44.446;26.000;2023-01-26T11:15:45;5.60;93.20
24426;DHT22;12611;44.446;26.000;2023-01-26T11:18:34;5.50;93.40
24426;DHT22;12611;44.446;26.000;2023-01-26T11:21:11;5.50;93.50
24426;DHT22;12611;44.446;26.000;2023-01-26T11:23:58;5.60;93.40
24426;DHT22;12611;44.446;26.000;2023-01-26T11:29:40;5.60;93.40
24426;DHT22;12611;44.446;26.000;2023-01-26T11:32:23;5.60;93.40
24426;DHT22;12611;44.446;26.000;2023-01-26T11:35:02;5.70;93.40
24426;DHT22;12611;44.446;26.000;2023-01-26T11:37:38;5.70;93.50
24426;DHT22;12611;44.446;26.000;2023-01-26T11:40:29;5.70;93.50
24426;DHT22;12611;44.446;26.000;2023-01-26T11:43:12;5.70;93.50
24426;DHT22;12611;44.446;26.000;2023-01-26T11:48:47;5.70;93.60
24426;DHT22;12611;44.446;26.000;2023-01-26T12:04:42;5.70;93.50
24426;DHT22;12611;44.446;26.000;2023-01-26T12:07:18;5.90;94.00
24426;DHT22;12611;44.446;26.000;2023-01-26T12:09:50;5.90;93.80
24426;DHT22;12611;44.446;26.000;2023-01-26T12:12:25;5.90;93.80
24426;DHT22;12611;44.446;26.000;2023-01-26T12:14:59;5.90;93.90
24426;DHT22;12611;44.446;26.000;2023-01-26T12:17:38;5.80;93.90
24426;DHT22;12611;44.446;26.000;2023-01-26T12:20:25;5.80;93.90
24426;DHT22;12611;44.446;26.000;2023-01-26T12:23:01;5.80;94.00
24426;DHT22;12611;44.446;26.000;2023-01-26T12:25:33;5.80;93.90
24426;DHT22;12611;44.446;26.000;2023-01-26T12:28:10;5.90;94.20
24426;DHT22;12611;44.446;26.000;2023-01-26T12:30:48;5.90;94.10
24426;DHT22;12611;44.446;26.000;2023-01-26T12:33:19;5.90;94.10
24426;DHT22;12611;44.446;26.000;2023-01-26T12:36:03;5.90;94.20
24426;DHT22;12611;44.446;26.000;2023-01-26T12:38:53;5.90;94.30
24426;DHT22;12611;44.446;26.000;2023-01-26T12:41:30;6.00;94.20
24426;DHT22;12611;44.446;26.000;2023-01-26T12:44:20;6.00;94.20
24426;DHT22;12611;44.446;26.000;2023-01-26T12:46:56;6.00;94.40
24426;DHT22;12611;44.446;26.000;2023-01-26T12:49:33;6.00;94.30
24426;DHT22;12611;44.446;26.000;2023-01-26T12:52:10;6.00;94.30
24426;DHT22;12611;44.446;26.000;2023-01-26T12:54:42;6.00;94.30
24426;DHT22;12611;44.446;26.000;2023-01-26T12:57:15;6.00;94.40
24426;DHT22;12611;44.446;26.000;2023-01-26T12:59:45;6.00;94.30
24426;DHT22;12611;44.446;26.000;2023-01-26T13:02:24;6.00;94.50
24426;DHT22;12611;44.446;26.000;2023-01-26T13:04:54;6.00;94.50
24426;DHT22;12611;44.446;26.000;2023-01-26T13:07:31;6.00;94.40
24426;DHT22;12611;44.446;26.000;2023-01-26T13:10:22;6.00;94.50
24426;DHT22;12611;44.446;26.000;2023-01-26T13:12:53;6.00;94.50
24426;DHT22;12611;44.446;26.000;2023-01-26T13:15:23;6.00;94.50
24426;DHT22;12611;44.446;26.000;2023-01-26T13:17:54;5.90;94.60
24426;DHT22;12611;44.446;26.000;2023-01-26T13:20:45;5.90;94.60
24426;DHT22;12611;44.446;26.000;2023-01-26T13:23:40;5.90;94.70
24426;DHT22;12611;44.446;26.000;2023-01-26T13:29:30;6.00;94.90
24426;DHT22;12611;44.446;26.000;2023-01-26T13:32:49;5.90;95.00
24426;DHT22;12611;44.446;26.000;2023-01-26T13:34:50;6.00;95.00
24426;DHT22;12611;44.446;26.000;2023-01-26T13:37:25;5.90;95.20
24426;DHT22;12611;44.446;26.000;2023-01-26T13:39:59;6.00;95.20
24426;DHT22;12611;44.446;26.000;2023-01-26T13:42:35;5.90;95.50
24426;DHT22;12611;44.446;26.000;2023-01-26T13:45:13;6.00;95.30
24426;DHT22;12611;44.446;26.000;2023-01-26T13:47:45;5.90;95.60
24426;DHT22;12611;44.446;26.000;2023-01-26T13:50:27;5.80;95.60
24426;DHT22;12611;44.446;26.000;2023-01-26T13:52:56;5.90;95.60
24426;DHT22;12611;44.446;26.000;2023-01-26T13:55:28;5.90;95.60
24426;DHT22;12611;44.446;26.000;2023-01-26T13:58:10;6.00;95.50
24426;DHT22;12611;44.446;26.000;2023-01-26T14:00:38;5.90;95.50
24426;DHT22;12611;44.446;26.000;2023-01-26T14:03:19;5.90;95.60
24426;DHT22;12611;44.446;26.000;2023-01-26T14:05:53;5.90;95.70
24426;DHT22;12611;44.446;26.000;2023-01-26T14:08:23;5.90;95.70
24426;DHT22;12611;44.446;26.000;2023-01-26T14:11:02;6.00;95.60
24426;DHT22;12611;44.446;26.000;2023-01-26T14:13:34;6.00;95.50
24426;DHT22;12611;44.446;26.000;2023-01-26T14:16:04;6.10;95.70
24426;DHT22;12611;44.446;26.000;2023-01-26T14:18:33;6.10;95.50
24426;DHT22;12611;44.446;26.000;2023-01-26T14:21:03;6.10;95.50
24426;DHT22;12611;44.446;26.000;2023-01-26T14:23:34;6.10;95.40
24426;DHT22;12611;44.446;26.000;2023-01-26T14:26:10;6.10;95.40
24426;DHT22;12611;44.446;26.000;2023-01-26T14:28:41;6.20;95.40
24426;DHT22;12611;44.446;26.000;2023-01-26T14:31:14;6.20;95.60
24426;DHT22;12611;44.446;26.000;2023-01-26T14:33:44;6.20;95.40
24426;DHT22;12611;44.446;26.000;2023-01-26T14:36:14;6.20;95.50
24426;DHT22;12611;44.446;26.000;2023-01-26T14:38:44;6.20;95.70
24426;DHT22;12611;44.446;26.000;2023-01-26T14:41:19;6.10;95.70
24426;DHT22;12611;44.446;26.000;2023-01-26T14:43:50;6.20;95.70
24426;DHT22;12611;44.446;26.000;2023-01-26T14:46:26;6.20;95.80
24426;DHT22;12611;44.446;26.000;2023-01-26T14:48:58;6.20;95.70
24426;DHT22;12611;44.446;26.000;2023-01-26T14:51:28;6.20;95.70
24426;DHT22;12611;44.446;26.000;2023-01-26T14:53:59;6.10;95.70
24426;DHT22;12611;44.446;26.000;2023-01-26T14:56:33;6.20;95.70
24426;DHT22;12611;44.446;26.000;2023-01-26T14:59:03;6.10;95.70
24426;DHT22;12611;44.446;26.000;2023-01-26T15:01:32;6.20;95.70
24426;DHT22;12611;44.446;26.000;2023-01-26T15:04:02;6.20;95.60
24426;DHT22;12611;44.446;26.000;2023-01-26T15:06:32;6.20;95.90
24426;DHT22;12611;44.446;26.000;2023-01-26T15:09:03;6.20;95.50
24426;DHT22;12611;44.446;26.000;2023-01-26T15:11:35;6.20;95.70
24426;DHT22;12611;44.446;26.000;2023-01-26T15:14:34;6.10;95.90
24426;DHT22;12611;44.446;26.000;2023-01-26T15:17:03;6.10;95.90
24426;DHT22;12611;44.446;26.000;2023-01-26T15:19:38;6.10;95.80
24426;DHT22;12611;44.446;26.000;2023-01-26T15:22:18;6.10;95.80
24426;DHT22;12611;44.446;26.000;2023-01-26T15:25:01;6.10;96.00
24426;DHT22;12611;44.446;26.000;2023-01-26T15:27:33;6.10;95.80
24426;DHT22;12611;44.446;26.000;2023-01-26T15:30:03;6.10;95.80
24426;DHT22;12611;44.446;26.000;2023-01-26T15:32:37;6.10;95.90
24426;DHT22;12611;44.446;26.000;2023-01-26T15:35:21;6.10;95.80
24426;DHT22;12611;44.446;26.000;2023-01-26T15:37:59;6.20;95.70
24426;DHT22;12611;44.446;26.000;2023-01-26T15:40:29;6.20;95.60
24426;DHT22;12611;44.446;26.000;2023-01-26T15:43:10;6.10;95.70
24426;DHT22;12611;44.446;26.000;2023-01-26T15:45:39;6.20;95.60
24426;DHT22;12611;44.446;26.000;2023-01-26T15:48:09;6.20;95.60
24426;DHT22;12611;44.446;26.000;2023-01-26T15:50:37;6.20;95.90
24426;DHT22;12611;44.446;26.000;2023-01-26T15:53:10;6.20;95.80
24426;DHT22;12611;44.446;26.000;2023-01-26T15:55:40;6.20;95.90
24426;DHT22;12611;44.446;26.000;2023-01-26T15:58:11;6.20;95.80
24426;DHT22;12611;44.446;26.000;2023-01-26T16:00:39;6.20;95.80
24426;DHT22;12611;44.446;26.000;2023-01-26T16:03:12;6.20;95.90
24426;DHT22;12611;44.446;26.000;2023-01-26T16:05:42;6.20;96.00
24426;DHT22;12611;44.446;26.000;2023-01-26T16:08:13;6.20;96.30
24426;DHT22;12611;44.446;26.000;2023-01-26T16:10:42;6.20;96.30
24426;DHT22;12611;44.446;26.000;2023-01-26T16:13:13;6.30;96.20
24426;DHT22;12611;44.446;26.000;2023-01-26T16:15:45;6.30;96.20
24426;DHT22;12611;44.446;26.000;2023-01-26T16:18:13;6.30;96.30
24426;DHT22;12611;44.446;26.000;2023-01-26T16:20:43;6.30;96.20
24426;DHT22;12611;44.446;26.000;2023-01-26T16:23:17;6.30;96.20
24426;DHT22;12611;44.446;26.000;2023-01-26T16:25:49;6.40;96.10
24426;DHT22;12611;44.446;26.000;2023-01-26T16:28:19;6.40;96.10
24426;DHT22;12611;44.446;26.000;2023-01-26T16:30:49;6.40;96.20
24426;DHT22;12611;44.446;26.000;2023-01-26T16:33:18;6.40;96.10
24426;DHT22;12611;44.446;26.000;2023-01-26T16:35:47;6.50;96.20
24426;DHT22;12611;44.446;26.000;2023-01-26T16:38:16;6.50;96.30